createdAt,value
2023-02-16T00:01:48.290Z,52.13
2023-02-16T00:03:52.394Z,50.95
2023-02-16T00:05:55.271Z,49.53
2023-02-16T00:07:59.093Z,53.53
2023-02-16T00:10:03.209Z,55.88
2023-02-16T00:12:37.295Z,50.15
2023-02-16T00:14:40.831Z,50.03
2023-02-16T00:16:45.655Z,50.88
2023-02-16T00:18:49.812Z,51.22
2023-02-16T00:20:52.650Z,52.83
2023-02-16T00:22:55.932Z,50.03
2023-02-16T00:24:59.394Z,48.95
2023-02-16T00:27:02.670Z,48.30
2023-02-16T00:29:05.971Z,46.15
2023-02-16T00:31:17.066Z,53.60
2023-02-16T00:33:22.223Z,51.22
2023-02-16T00:35:25.263Z,46.90
2023-02-16T00:37:28.218Z,47.85
2023-02-16T00:39:35.575Z,52.45
2023-02-16T00:41:54.270Z,47.75
2023-02-16T00:43:57.195Z,53.40
2023-02-16T00:46:00.302Z,51.60
2023-02-16T00:48:03.501Z,52.63
2023-02-16T00:50:18.864Z,51.60
2023-02-16T00:52:34.087Z,47.03
2023-02-16T00:54:37.361Z,54.07
2023-02-16T00:56:42.281Z,45.03
2023-02-16T00:58:45.561Z,47.70
2023-02-16T01:00:51.565Z,51.78
2023-02-16T01:02:58.904Z,50.40
2023-02-16T01:05:01.859Z,48.58
2023-02-16T01:07:30.717Z,48.63
2023-02-16T01:09:52.399Z,48.38
2023-02-16T01:11:55.753Z,48.38
2023-02-16T01:13:58.996Z,48.47
2023-02-16T01:16:01.965Z,50.58
2023-02-16T01:18:06.522Z,55.47
2023-02-16T01:20:15.313Z,50.28
2023-02-16T01:22:19.911Z,49.35
2023-02-16T01:24:22.753Z,51.00
2023-02-16T01:26:25.764Z,45.38
2023-02-16T01:28:28.702Z,47.45
2023-02-16T01:30:31.732Z,50.55
2023-02-16T01:32:34.838Z,54.95
2023-02-16T01:34:39.037Z,45.90
2023-02-16T01:36:44.112Z,40.70
2023-02-16T01:38:48.874Z,48.53
2023-02-16T01:41:05.806Z,50.70
2023-02-16T01:43:19.393Z,49.22
2023-02-16T01:45:33.833Z,52.58
2023-02-16T01:47:42.633Z,23.85
2023-02-16T01:49:45.595Z,57.47
2023-02-16T01:51:53.994Z,55.03
2023-02-16T01:54:07.914Z,55.75
2023-02-16T01:56:19.521Z,53.58
2023-02-16T01:58:36.194Z,50.72
2023-02-16T02:01:25.153Z,56.35
2023-02-16T02:03:49.222Z,54.95
2023-02-16T02:05:52.315Z,51.67
2023-02-16T02:07:59.214Z,56.58
2023-02-16T02:10:10.554Z,51.83
2023-02-16T02:12:24.117Z,48.08
2023-02-16T02:14:31.995Z,54.65
2023-02-16T02:16:35.876Z,56.40
2023-02-16T02:18:39.543Z,53.20
2023-02-16T02:21:16.499Z,64.55
2023-02-16T02:23:32.075Z,54.40
2023-02-16T02:26:01.884Z,59.47
2023-02-16T02:28:14.954Z,54.60
2023-02-16T02:30:38.033Z,54.95
2023-02-16T02:33:03.199Z,57.20
2023-02-16T02:35:19.235Z,59.95
2023-02-16T02:37:30.159Z,54.60
2023-02-16T02:39:41.034Z,56.75
2023-02-16T02:42:05.005Z,34.03
2023-02-16T02:44:27.439Z,58.55
2023-02-16T02:46:34.373Z,57.60
2023-02-16T02:48:39.524Z,58.67
2023-02-16T02:51:07.622Z,58.22
2023-02-16T02:53:14.659Z,55.30
2023-02-16T02:55:37.795Z,53.45
2023-02-16T02:58:04.126Z,58.55
2023-02-16T03:00:34.454Z,52.72
2023-02-16T03:02:40.824Z,56.50
2023-02-16T03:04:46.474Z,53.72
2023-02-16T03:06:54.558Z,54.92
2023-02-16T03:09:01.936Z,54.53
2023-02-16T03:11:28.162Z,54.38
2023-02-16T03:13:36.585Z,49.60
2023-02-16T03:15:44.036Z,55.53
2023-02-16T03:18:05.548Z,58.88
2023-02-16T03:20:32.810Z,54.83
2023-02-16T03:22:55.884Z,54.35
2023-02-16T03:25:17.562Z,54.97
2023-02-16T03:27:44.555Z,54.42
2023-02-16T03:29:50.035Z,54.10
2023-02-16T03:31:57.222Z,55.50
2023-02-16T03:34:00.873Z,47.53
2023-02-16T03:36:05.063Z,51.33
2023-02-16T03:38:08.910Z,48.33
2023-02-16T03:40:30.148Z,54.95
2023-02-16T03:42:33.157Z,55.95
2023-02-16T03:44:36.180Z,57.22
2023-02-16T03:46:39.107Z,54.60
2023-02-16T03:48:43.794Z,60.30
2023-02-16T03:50:46.750Z,57.23
2023-02-16T03:52:49.793Z,53.17
2023-02-16T03:54:52.701Z,59.17
2023-02-16T03:56:55.675Z,55.70
2023-02-16T03:58:58.655Z,52.42
2023-02-16T04:01:02.086Z,58.92
2023-02-16T04:03:06.241Z,55.67
2023-02-16T04:05:10.881Z,52.42
2023-02-16T04:07:13.983Z,56.45
2023-02-16T04:09:16.805Z,50.17
2023-02-16T04:11:38.559Z,46.50
2023-02-16T04:13:41.416Z,50.28
2023-02-16T04:15:44.514Z,17.90
2023-02-16T04:17:48.080Z,50.65
2023-02-16T04:19:51.039Z,45.60
2023-02-16T04:21:55.595Z,51.45
2023-02-16T04:23:58.536Z,57.38
2023-02-16T04:26:01.486Z,53.78
2023-02-16T04:28:04.578Z,65.32
2023-02-16T04:30:13.148Z,56.22
2023-02-16T04:32:16.221Z,58.65
2023-02-16T04:34:19.496Z,60.55
2023-02-16T04:36:22.406Z,55.83
2023-02-16T04:38:26.774Z,51.13
2023-02-16T04:40:29.694Z,60.85
2023-02-16T04:42:32.878Z,57.08
2023-02-16T04:44:35.835Z,60.45
2023-02-16T04:46:38.872Z,57.65
2023-02-16T04:48:41.832Z,57.50
2023-02-16T04:50:44.669Z,55.08
2023-02-16T04:52:47.634Z,56.97
2023-02-16T04:54:52.034Z,58.80
2023-02-16T04:56:55.329Z,47.83
2023-02-16T04:58:58.309Z,58.78
2023-02-16T05:01:01.482Z,55.45
2023-02-16T05:03:04.718Z,52.30
2023-02-16T05:05:08.610Z,60.22
2023-02-16T05:07:11.610Z,52.50
2023-02-16T05:09:14.553Z,50.45
2023-02-16T05:11:37.250Z,61.60
2023-02-16T05:13:59.112Z,59.75
2023-02-16T05:16:02.255Z,77.50
2023-02-16T05:18:05.719Z,105.20
2023-02-16T05:20:09.203Z,116.55
2023-02-16T05:22:12.594Z,76.97
2023-02-16T05:24:15.472Z,75.80
2023-02-16T05:26:19.952Z,67.20
2023-02-16T05:28:22.946Z,68.30
2023-02-16T05:30:25.877Z,63.10
2023-02-16T05:32:28.884Z,63.47
2023-02-16T05:34:32.152Z,68.03
2023-02-16T05:36:35.082Z,77.13
2023-02-16T05:38:38.152Z,80.88
2023-02-16T05:40:41.052Z,71.85
2023-02-16T05:42:45.514Z,72.65
2023-02-16T05:44:48.714Z,80.00
2023-02-16T05:46:51.677Z,58.25
2023-02-16T05:48:54.840Z,67.78
2023-02-16T05:50:57.826Z,84.38
2023-02-16T05:53:00.717Z,64.53
2023-02-16T05:55:03.720Z,61.38
2023-02-16T05:57:06.717Z,60.72
2023-02-16T05:59:11.317Z,59.78
2023-02-16T06:01:14.521Z,55.38
2023-02-16T06:03:17.606Z,54.42
2023-02-16T06:05:20.877Z,61.15
2023-02-16T06:07:24.076Z,56.92
2023-02-16T06:09:27.156Z,63.92
2023-02-16T06:11:39.157Z,63.05
2023-02-16T06:13:42.042Z,68.95
2023-02-16T06:15:47.225Z,74.47
2023-02-16T06:17:50.160Z,66.70
2023-02-16T06:19:53.119Z,63.63
2023-02-16T06:21:56.002Z,75.15
2023-02-16T06:23:59.357Z,63.63
2023-02-16T06:26:02.168Z,73.80
2023-02-16T06:28:05.510Z,73.93
2023-02-16T06:30:09.367Z,29.13
2023-02-16T06:32:14.058Z,71.38
2023-02-16T06:34:16.987Z,73.43
2023-02-16T06:36:20.439Z,73.00
2023-02-16T06:38:23.260Z,90.95
2023-02-16T06:40:26.476Z,92.93
2023-02-16T06:42:29.479Z,73.78
2023-02-16T06:44:32.445Z,81.55
2023-02-16T06:46:35.774Z,63.30
2023-02-16T06:48:40.315Z,70.00
2023-02-16T06:50:43.201Z,64.25
2023-02-16T06:52:46.158Z,53.00
2023-02-16T06:54:48.996Z,71.57
2023-02-16T06:56:51.942Z,66.85
2023-02-16T06:58:54.924Z,64.70
2023-02-16T07:00:57.909Z,65.65
2023-02-16T07:03:01.108Z,60.83
2023-02-16T07:05:06.229Z,51.42
2023-02-16T07:07:09.190Z,47.92
2023-02-16T07:09:12.945Z,12.95
2023-02-16T07:11:16.179Z,59.03
2023-02-16T07:13:19.082Z,54.42
2023-02-16T07:15:21.957Z,62.97
2023-02-16T07:17:24.955Z,58.08
2023-02-16T07:19:27.807Z,65.40
2023-02-16T07:21:32.355Z,21.83
2023-02-16T07:23:35.315Z,57.15
2023-02-16T07:25:38.275Z,62.05
2023-02-16T07:27:41.174Z,56.92
2023-02-16T07:29:47.154Z,54.95
2023-02-16T07:31:51.225Z,56.33
2023-02-16T07:33:54.394Z,59.63
2023-02-16T07:35:57.209Z,56.80
2023-02-16T07:38:01.952Z,60.05
2023-02-16T07:40:05.302Z,55.07
2023-02-16T07:42:08.272Z,58.08
2023-02-16T07:44:11.254Z,56.55
2023-02-16T07:46:14.421Z,60.90
2023-02-16T07:48:17.462Z,56.53
2023-02-16T07:50:20.630Z,62.55
2023-02-16T07:52:26.189Z,59.00
2023-02-16T07:54:32.100Z,60.28
2023-02-16T07:58:38.029Z,56.88
2023-02-16T08:00:41.097Z,56.47
2023-02-16T08:02:44.398Z,53.55
2023-02-16T08:04:48.879Z,54.25
2023-02-16T08:06:51.830Z,53.58
2023-02-16T08:08:54.791Z,59.35
2023-02-16T08:10:59.434Z,55.05
2023-02-16T08:13:02.712Z,54.88
2023-02-16T08:15:06.250Z,58.55
2023-02-16T08:17:09.681Z,52.63
2023-02-16T08:19:14.123Z,52.42
2023-02-16T08:21:18.889Z,55.83
2023-02-16T08:23:21.815Z,52.75
2023-02-16T08:25:24.716Z,54.42
2023-02-16T08:27:29.239Z,54.40
2023-02-16T08:29:33.397Z,53.28
2023-02-16T08:31:38.655Z,58.92
2023-02-16T08:33:42.687Z,52.97
2023-02-16T08:35:45.637Z,52.13
2023-02-16T08:37:48.597Z,53.70
2023-02-16T08:39:52.396Z,51.05
2023-02-16T08:41:55.859Z,47.15
2023-02-16T08:44:01.287Z,48.65
2023-02-16T08:46:06.692Z,51.58
2023-02-16T08:48:10.246Z,46.80
2023-02-16T08:50:13.124Z,53.72
2023-02-16T08:52:16.673Z,44.47
2023-02-16T08:54:22.251Z,49.22
2023-02-16T08:56:26.563Z,46.25
2023-02-16T08:58:30.872Z,47.70
2023-02-16T09:00:35.472Z,50.83
2023-02-16T09:02:38.408Z,45.88
2023-02-16T09:04:41.692Z,49.80
2023-02-16T09:06:46.530Z,44.08
2023-02-16T09:08:52.970Z,48.55
2023-02-16T09:10:56.165Z,49.25
2023-02-16T09:12:59.319Z,39.50
2023-02-16T09:15:03.374Z,46.78
2023-02-16T09:17:07.977Z,49.92
2023-02-16T09:19:11.350Z,48.90
2023-02-16T09:21:16.193Z,47.38
2023-02-16T09:23:20.867Z,41.30
2023-02-16T09:25:25.230Z,46.40
2023-02-16T09:27:28.232Z,46.92
2023-02-16T09:29:31.319Z,46.58
2023-02-16T09:31:37.549Z,47.38
2023-02-16T09:33:44.117Z,43.92
2023-02-16T09:35:47.070Z,48.78
2023-02-16T09:37:50.360Z,47.10
2023-02-16T09:39:53.210Z,42.10
2023-02-16T09:42:05.233Z,44.00
2023-02-16T09:44:16.119Z,48.00
2023-02-16T09:46:23.152Z,45.10
2023-02-16T09:48:36.471Z,46.05
2023-02-16T09:50:53.382Z,47.97
2023-02-16T09:53:01.186Z,47.58
2023-02-16T09:55:08.555Z,30.83
2023-02-16T09:57:21.873Z,48.10
2023-02-16T09:59:41.300Z,43.83
2023-02-16T10:01:48.770Z,44.53
2023-02-16T10:04:01.751Z,46.47
2023-02-16T10:06:36.553Z,45.17
2023-02-16T10:08:42.651Z,48.70
2023-02-16T10:11:02.231Z,44.53
2023-02-16T10:13:15.664Z,56.03
2023-02-16T10:15:22.630Z,47.50
2023-02-16T10:17:34.463Z,49.35
2023-02-16T10:19:43.032Z,46.03
2023-02-16T10:21:52.841Z,46.08
2023-02-16T10:24:00.351Z,36.25
2023-02-16T10:26:09.233Z,47.80
2023-02-16T10:28:18.018Z,45.50
2023-02-16T10:30:23.812Z,41.83
2023-02-16T10:32:33.956Z,42.17
2023-02-16T10:34:48.916Z,42.03
2023-02-16T10:37:17.833Z,46.17
2023-02-16T10:39:28.114Z,44.78
2023-02-16T10:41:37.440Z,40.33
2023-02-16T10:43:46.929Z,44.60
2023-02-16T10:45:52.697Z,44.72
2023-02-16T10:47:55.940Z,42.22
2023-02-16T10:49:58.998Z,40.75
2023-02-16T10:52:04.658Z,43.10
2023-02-16T10:56:53.241Z,40.97
2023-02-16T10:58:57.938Z,37.28
2023-02-16T11:01:08.920Z,40.72
2023-02-16T11:03:14.143Z,44.80
2023-02-16T11:05:36.486Z,47.80
2023-02-16T11:07:53.880Z,44.95
2023-02-16T11:09:59.079Z,43.17
2023-02-16T11:12:02.967Z,45.95
2023-02-16T11:14:09.125Z,43.42
2023-02-16T11:16:19.784Z,50.08
2023-02-16T11:18:33.507Z,46.90
2023-02-16T11:20:53.141Z,44.40
2023-02-16T11:23:13.704Z,43.85
2023-02-16T11:25:27.226Z,45.25
2023-02-16T11:27:30.281Z,47.72
2023-02-16T11:29:33.891Z,46.45
2023-02-16T11:31:39.195Z,43.95
2023-02-16T11:33:44.244Z,48.55
2023-02-16T11:35:47.965Z,49.85
2023-02-16T11:37:51.424Z,49.47
2023-02-16T11:39:58.244Z,50.45
2023-02-16T11:42:05.659Z,47.55
2023-02-16T11:44:27.407Z,41.47
2023-02-16T11:46:40.327Z,46.33
2023-02-16T11:48:43.717Z,41.13
2023-02-16T11:50:57.392Z,50.53
2023-02-16T11:53:16.830Z,47.95
2023-02-16T11:55:27.159Z,45.33
2023-02-16T11:57:32.155Z,49.42
2023-02-16T11:59:37.840Z,46.33
2023-02-16T12:02:09.073Z,49.67
2023-02-16T12:04:24.154Z,44.97
2023-02-16T12:06:42.349Z,46.67
2023-02-16T12:08:56.834Z,47.75
2023-02-16T12:11:16.004Z,44.35
2023-02-16T12:13:28.598Z,40.17
2023-02-16T12:15:43.094Z,48.63
2023-02-16T12:18:05.375Z,50.42
2023-02-16T12:20:23.836Z,54.42
2023-02-16T12:22:35.272Z,48.55
2023-02-16T12:24:47.432Z,47.15
2023-02-16T12:26:54.072Z,56.03
2023-02-16T12:29:07.272Z,54.50
2023-02-16T12:31:22.644Z,50.85
2023-02-16T12:33:41.800Z,53.25
2023-02-16T12:36:07.021Z,57.10
2023-02-16T12:38:21.051Z,53.63
2023-02-16T12:40:34.313Z,54.75
2023-02-16T12:42:53.378Z,53.30
2023-02-16T12:44:59.954Z,54.67
2023-02-16T12:47:05.619Z,49.28
2023-02-16T12:49:16.862Z,55.95
2023-02-16T12:51:22.871Z,49.05
2023-02-16T12:53:33.188Z,52.20
2023-02-16T12:55:41.951Z,47.63
2023-02-16T12:57:53.396Z,48.08
2023-02-16T13:00:01.643Z,50.05
2023-02-16T13:02:15.420Z,47.90
2023-02-16T13:04:25.325Z,51.22
2023-02-16T13:06:34.152Z,65.40
2023-02-16T13:08:43.598Z,54.15
2023-02-16T13:10:55.761Z,47.38
2023-02-16T13:13:04.863Z,49.42
2023-02-16T13:15:15.212Z,53.78
2023-02-16T13:17:32.357Z,64.80
2023-02-16T13:19:36.316Z,55.25
2023-02-16T13:22:10.321Z,48.25
2023-02-16T13:24:26.655Z,52.72
2023-02-16T13:26:46.729Z,47.40
2023-02-16T13:29:03.934Z,73.15
2023-02-16T13:31:24.170Z,59.60
2023-02-16T13:33:50.638Z,58.83
2023-02-16T13:36:27.828Z,62.22
2023-02-16T13:41:10.957Z,49.47
2023-02-16T13:43:26.401Z,52.03
2023-02-16T13:45:34.239Z,57.72
2023-02-16T13:47:40.317Z,47.90
2023-02-16T13:49:43.885Z,47.85
2023-02-16T13:51:47.634Z,51.38
2023-02-16T13:53:57.060Z,45.85
2023-02-16T13:56:24.105Z,53.55
2023-02-16T13:58:32.848Z,54.38
2023-02-16T14:00:40.436Z,48.15
2023-02-16T14:02:58.897Z,51.45
2023-02-16T14:05:04.518Z,50.97
2023-02-16T14:12:14.798Z,51.38
2023-02-16T14:14:30.677Z,48.70
2023-02-16T14:16:35.332Z,51.75
2023-02-16T14:18:43.442Z,44.45
2023-02-16T14:20:46.517Z,55.55
2023-02-16T14:22:51.476Z,51.92
2023-02-16T14:24:57.957Z,48.72
2023-02-16T14:27:04.377Z,49.20
2023-02-16T14:29:17.957Z,46.20
2023-02-16T14:31:23.288Z,53.28
2023-02-16T14:33:41.577Z,45.08
2023-02-16T14:35:47.198Z,49.80
2023-02-16T14:40:20.163Z,51.60
2023-02-16T14:42:29.301Z,46.30
2023-02-16T14:44:51.557Z,51.20
2023-02-16T14:47:12.237Z,52.58
2023-02-16T14:49:39.158Z,59.17
2023-02-16T14:52:01.088Z,51.45
2023-02-16T14:54:24.773Z,49.40
2023-02-16T14:56:38.798Z,52.28
2023-02-16T14:58:51.755Z,52.45
2023-02-16T15:01:02.915Z,48.42
2023-02-16T15:03:17.587Z,60.67
2023-02-16T15:05:25.162Z,54.22
2023-02-16T15:07:29.241Z,66.78
2023-02-16T15:09:34.053Z,97.47
2023-02-16T15:11:59.996Z,59.10
2023-02-16T15:14:09.354Z,563.47
2023-02-16T15:16:16.769Z,59.03
2023-02-16T15:18:23.325Z,64.85
2023-02-16T15:20:31.836Z,63.40
2023-02-16T15:22:39.117Z,62.83
2023-02-16T15:24:42.077Z,56.05
2023-02-16T15:26:54.967Z,59.50
2023-02-16T15:28:59.757Z,59.97
2023-02-16T15:31:08.301Z,56.78
2023-02-16T15:33:26.480Z,57.88
2023-02-16T15:35:36.188Z,51.92
2023-02-16T15:37:40.848Z,54.60
2023-02-16T15:39:56.191Z,55.22
2023-02-16T15:42:21.234Z,55.75
2023-02-16T15:44:34.571Z,55.45
2023-02-16T15:46:40.030Z,50.03
2023-02-16T15:48:42.953Z,66.78
2023-02-16T15:50:47.793Z,105.82
2023-02-16T15:52:50.878Z,104.20
2023-02-16T15:54:54.356Z,183.18
2023-02-16T15:56:59.272Z,154.52
2023-02-16T15:59:06.752Z,103.60
2023-02-16T16:01:13.990Z,126.78
2023-02-16T16:03:22.833Z,129.68
2023-02-16T16:05:28.593Z,201.90
2023-02-16T16:07:40.317Z,90.22
2023-02-16T16:09:45.550Z,64.75
2023-02-16T16:11:50.089Z,53.25
2023-02-16T16:13:54.312Z,59.33
2023-02-16T16:16:02.259Z,54.92
2023-02-16T16:18:06.472Z,62.30
2023-02-16T16:20:27.676Z,56.05
2023-02-16T16:22:38.917Z,55.10
2023-02-16T16:24:45.551Z,62.60
2023-02-16T16:26:53.511Z,59.55
2023-02-16T16:28:57.322Z,65.38
2023-02-16T16:31:08.746Z,64.13
2023-02-16T16:33:13.763Z,64.32
2023-02-16T16:35:21.824Z,59.42
2023-02-16T16:37:30.314Z,56.95
2023-02-16T16:39:37.009Z,56.00
2023-02-16T16:41:41.794Z,53.67
2023-02-16T16:43:54.153Z,54.40
2023-02-16T16:46:11.593Z,59.45
2023-02-16T16:48:19.482Z,68.80
2023-02-16T16:50:31.637Z,67.18
2023-02-16T16:52:38.546Z,90.10
2023-02-16T16:54:43.164Z,79.50
2023-02-16T16:56:46.045Z,64.60
2023-02-16T16:58:50.836Z,66.63
2023-02-16T17:00:53.642Z,74.47
2023-02-16T17:02:56.672Z,67.47
2023-02-16T17:04:59.999Z,76.82
2023-02-16T17:07:02.872Z,73.18
2023-02-16T17:09:06.036Z,62.60
2023-02-16T17:11:14.190Z,66.15
2023-02-16T17:13:20.726Z,63.92
2023-02-16T17:15:34.710Z,72.63
2023-02-16T17:17:38.880Z,74.38
2023-02-16T17:19:42.483Z,64.82
2023-02-16T17:21:46.511Z,68.63
2023-02-16T17:23:53.210Z,77.88
2023-02-16T17:25:56.369Z,76.13
2023-02-16T17:28:01.440Z,68.35
2023-02-16T17:30:05.059Z,68.72
2023-02-16T17:32:08.169Z,65.50
2023-02-16T17:34:11.083Z,68.43
2023-02-16T17:36:16.109Z,76.75
2023-02-16T17:38:21.115Z,73.28
2023-02-16T17:40:25.228Z,77.30
2023-02-16T17:42:28.364Z,78.85
2023-02-16T17:44:32.746Z,77.20
2023-02-16T17:46:35.634Z,74.32
2023-02-16T17:48:38.586Z,69.43
2023-02-16T17:50:41.621Z,69.70
2023-02-16T17:52:45.310Z,77.10
2023-02-16T17:54:48.166Z,78.82
2023-02-16T17:56:51.026Z,76.32
2023-02-16T17:58:53.870Z,71.05
2023-02-16T18:00:58.410Z,78.43
2023-02-16T18:03:01.313Z,78.63
2023-02-16T18:05:04.268Z,73.70
2023-02-16T18:07:07.615Z,75.60
2023-02-16T18:09:15.149Z,77.10
2023-02-16T18:11:18.193Z,74.85
2023-02-16T18:13:21.391Z,68.93
2023-02-16T18:15:24.589Z,93.00
2023-02-16T18:17:29.123Z,75.55
2023-02-16T18:19:32.430Z,79.90
2023-02-16T18:21:35.790Z,77.10
2023-02-16T18:23:38.911Z,68.78
2023-02-16T18:25:44.288Z,87.60
2023-02-16T18:27:47.251Z,81.55
2023-02-16T18:29:52.036Z,116.30
2023-02-16T18:31:54.896Z,157.03
2023-02-16T18:33:59.396Z,127.78
2023-02-16T18:36:03.012Z,120.30
2023-02-16T18:38:06.439Z,86.55
2023-02-16T18:40:13.240Z,104.20
2023-02-16T18:42:16.195Z,86.72
2023-02-16T18:44:18.997Z,83.70
2023-02-16T18:46:22.226Z,89.13
2023-02-16T18:48:25.198Z,87.32
2023-02-16T18:50:29.718Z,93.18
2023-02-16T18:52:32.679Z,106.70
2023-02-16T18:54:36.041Z,99.50
2023-02-16T18:56:40.900Z,95.68
2023-02-16T18:58:44.011Z,93.70
2023-02-16T19:00:46.879Z,96.57
2023-02-16T19:02:50.843Z,110.57
2023-02-16T19:04:53.717Z,111.25
2023-02-16T19:06:58.798Z,127.80
2023-02-16T19:09:01.922Z,149.53
2023-02-16T19:11:05.296Z,333.55
2023-02-16T19:13:08.342Z,206.32
2023-02-16T19:15:11.371Z,257.17
2023-02-16T19:17:14.200Z,171.15
2023-02-16T19:19:17.216Z,213.13
2023-02-16T19:21:20.414Z,181.60
2023-02-16T19:23:24.998Z,208.38
2023-02-16T19:25:29.839Z,294.05
2023-02-16T19:27:33.286Z,277.52
2023-02-16T19:29:36.137Z,256.58
2023-02-16T19:31:39.590Z,197.75
2023-02-16T19:33:42.641Z,166.13
2023-02-16T19:35:45.531Z,112.82
2023-02-16T19:37:48.439Z,121.93
2023-02-16T19:39:53.464Z,134.80
2023-02-16T19:41:56.313Z,173.43
2023-02-16T19:43:59.273Z,245.70
2023-02-16T19:46:03.731Z,231.80
2023-02-16T19:48:06.954Z,170.33
2023-02-16T19:50:10.442Z,215.50
2023-02-16T19:52:13.310Z,165.55
2023-02-16T19:54:16.219Z,186.18
2023-02-16T19:56:23.595Z,142.40
2023-02-16T19:58:27.229Z,154.75
2023-02-16T20:00:30.166Z,137.52
2023-02-16T20:02:33.048Z,109.97
2023-02-16T20:04:36.091Z,106.97
2023-02-16T20:06:40.721Z,123.18
2023-02-16T20:08:44.441Z,111.00
2023-02-16T20:10:47.301Z,102.07
2023-02-16T20:12:51.631Z,85.25
2023-02-16T20:14:54.552Z,100.57
2023-02-16T20:16:57.553Z,101.95
2023-02-16T20:19:00.749Z,103.88
2023-02-16T20:21:06.358Z,89.40
2023-02-16T20:23:09.353Z,87.97
2023-02-16T20:25:12.509Z,87.15
2023-02-16T20:27:15.723Z,87.05
2023-02-16T20:29:21.151Z,89.45
2023-02-16T20:31:26.094Z,92.88
2023-02-16T20:33:29.027Z,81.43
2023-02-16T20:35:32.433Z,87.45
2023-02-16T20:37:35.655Z,77.28
2023-02-16T20:39:38.460Z,82.68
2023-02-16T20:41:41.747Z,87.28
2023-02-16T20:43:45.275Z,88.40
2023-02-16T20:45:49.833Z,90.30
2023-02-16T20:47:52.834Z,122.72
2023-02-16T20:49:55.902Z,95.25
2023-02-16T20:51:58.813Z,100.60
2023-02-16T20:54:03.230Z,118.57
2023-02-16T20:56:08.523Z,95.13
2023-02-16T20:58:11.570Z,89.47
2023-02-16T21:00:20.477Z,95.22
2023-02-16T21:02:25.230Z,92.80
2023-02-16T21:04:28.271Z,94.65
2023-02-16T21:06:31.669Z,84.53
2023-02-16T21:08:34.671Z,86.25
2023-02-16T21:10:37.611Z,77.15
2023-02-16T21:12:40.544Z,79.68
2023-02-16T21:14:43.633Z,87.85
2023-02-16T21:16:46.990Z,79.85
2023-02-16T21:18:52.108Z,79.15
2023-02-16T21:20:54.914Z,85.32
2023-02-16T21:22:58.071Z,83.60
2023-02-16T21:25:01.050Z,78.90
2023-02-16T21:27:03.950Z,85.85
2023-02-16T21:29:06.814Z,85.55
2023-02-16T21:31:12.842Z,84.15
2023-02-16T21:33:15.921Z,81.03
2023-02-16T21:35:20.510Z,89.45
2023-02-16T21:37:23.462Z,83.22
2023-02-16T21:39:46.319Z,93.50
2023-02-16T21:41:49.251Z,86.78
2023-02-16T21:43:58.797Z,96.40
2023-02-16T21:46:02.161Z,85.25
2023-02-16T21:48:23.992Z,80.38
2023-02-16T21:50:29.398Z,88.00
2023-02-16T21:52:32.531Z,84.78
2023-02-16T21:54:54.091Z,80.80
2023-02-16T21:56:57.147Z,92.18
2023-02-16T21:59:00.030Z,87.90
2023-02-16T22:01:03.008Z,80.60
2023-02-16T22:03:06.590Z,86.47
2023-02-16T22:05:12.831Z,84.03
2023-02-16T22:07:17.310Z,90.43
2023-02-16T22:09:21.814Z,88.28
2023-02-16T22:11:24.834Z,88.32
2023-02-16T22:13:27.911Z,85.93
2023-02-16T22:15:31.031Z,82.60
2023-02-16T22:17:34.509Z,86.63
2023-02-16T22:19:37.432Z,79.68
2023-02-16T22:21:42.668Z,79.50
2023-02-16T22:23:47.001Z,91.38
2023-02-16T22:25:50.029Z,87.63
2023-02-16T22:27:53.232Z,89.55
2023-02-16T22:29:56.165Z,78.57
2023-02-16T22:31:59.251Z,83.57
2023-02-16T22:34:04.036Z,77.60
2023-02-16T22:36:10.276Z,81.10
2023-02-16T22:38:13.311Z,77.70
2023-02-16T22:40:18.274Z,79.45
2023-02-16T22:42:21.234Z,80.63
2023-02-16T22:44:24.154Z,75.40
2023-02-16T22:46:28.942Z,78.15
2023-02-16T22:48:31.795Z,81.70
2023-02-16T22:50:34.756Z,76.70
2023-02-16T22:52:38.514Z,84.65
2023-02-16T22:54:41.445Z,86.30
2023-02-16T22:56:45.922Z,81.15
2023-02-16T22:58:49.003Z,74.90
2023-02-16T23:00:52.400Z,81.43
2023-02-16T23:02:55.521Z,84.60
2023-02-16T23:04:59.115Z,79.60
2023-02-16T23:07:01.995Z,79.65
2023-02-16T23:09:07.196Z,82.38
2023-02-16T23:11:10.116Z,81.43
2023-02-16T23:13:14.476Z,73.15
2023-02-16T23:15:17.456Z,84.63
2023-02-16T23:17:20.476Z,76.82
2023-02-16T23:19:24.835Z,73.18
2023-02-16T23:21:30.236Z,79.03
2023-02-16T23:23:33.177Z,81.40
2023-02-16T23:25:36.281Z,85.43
2023-02-16T23:27:39.394Z,84.55
2023-02-16T23:29:43.795Z,88.45
2023-02-16T23:31:47.670Z,82.50
2023-02-16T23:33:51.356Z,88.03
2023-02-16T23:35:55.158Z,78.35
2023-02-16T23:37:58.114Z,79.68
2023-02-16T23:40:01.114Z,85.15
2023-02-16T23:42:04.072Z,85.78
2023-02-16T23:44:07.797Z,83.45
2023-02-16T23:46:12.433Z,88.53
2023-02-16T23:48:15.662Z,87.80
2023-02-16T23:50:18.791Z,83.85
2023-02-16T23:52:21.791Z,82.78
2023-02-16T23:54:24.753Z,89.57
2023-02-16T23:56:29.480Z,85.90
2023-02-16T23:58:34.391Z,80.30
